Time;durP1;ratioP1;P1;durP2;ratioP2;P2;SDS_P1;SDS_P2;PMS_P1;PMS_P2;Temp;Humidity;BMP_temperature;BMP_pressure;BME280_temperature;BME280_humidity;BME280_pressure;Samples;Min_cycle;Max_cycle;Signal;HPM_P1;HPM_P2
2022/01/08 00:01:11;;;;;;;4.97;3.22;;;3.20;99.90;;;;;;4973351;29;20028;-81
2022/01/08 00:03:40;;;;;;;4.82;4.22;;;3.20;99.90;;;;;;4959919;29;20047;-81
2022/01/08 00:06:08;;;;;;;4.88;4.20;;;3.20;99.90;;;;;;4955511;29;20036;-79
2022/01/08 00:08:34;;;;;;;4.70;2.97;;;3.20;99.90;;;;;;4954702;28;20481;-80
2022/01/08 00:11:00;;;;;;;7.85;6.15;;;3.20;99.90;;;;;;4955580;29;20039;-80
2022/01/08 00:13:27;;;;;;;6.07;5.03;;;3.20;99.90;;;;;;4955863;29;20031;-81
2022/01/08 00:15:53;;;;;;;8.07;4.40;;;3.20;99.90;;;;;;4955827;29;20038;-80
2022/01/08 00:18:19;;;;;;;4.20;3.80;;;3.20;99.90;;;;;;4955271;29;20038;-82
2022/01/08 00:20:45;;;;;;;6.15;4.32;;;3.20;99.90;;;;;;4956128;29;20043;-83
2022/01/08 00:23:12;;;;;;;6.30;5.32;;;3.20;99.90;;;;;;4955399;29;20050;-82
2022/01/08 00:25:38;;;;;;;5.13;4.63;;;3.20;99.90;;;;;;4955925;29;20453;-83
2022/01/08 00:28:04;;;;;;;7.53;6.10;;;3.10;99.90;;;;;;4955192;29;20035;-82
2022/01/08 00:30:30;;;;;;;6.60;4.32;;;3.10;99.90;;;;;;4955505;29;20039;-82
2022/01/08 00:32:58;;;;;;;4.50;3.83;;;3.10;99.90;;;;;;4955730;29;20035;-81
2022/01/08 00:35:27;;;;;;;13.65;4.13;;;3.10;99.90;;;;;;4955788;29;20035;-81
2022/01/08 00:37:53;;;;;;;4.65;3.72;;;3.20;99.90;;;;;;4955448;29;20031;-81
2022/01/08 00:40:19;;;;;;;4.40;4.00;;;3.20;99.90;;;;;;4954777;29;20038;-81
2022/01/08 00:42:45;;;;;;;4.55;4.00;;;3.10;99.90;;;;;;4955614;29;20035;-81
2022/01/08 00:45:12;;;;;;;8.48;4.38;;;3.20;99.90;;;;;;4937792;29;20042;-80
2022/01/08 00:47:38;;;;;;;6.47;4.90;;;3.20;99.90;;;;;;4955836;29;20039;-81
2022/01/08 00:50:05;;;;;;;4.88;3.78;;;3.20;99.90;;;;;;4954615;29;20039;-82
2022/01/08 00:52:32;;;;;;;4.32;3.92;;;3.20;99.90;;;;;;4955610;29;20043;-82
2022/01/08 00:54:58;;;;;;;4.53;4.10;;;3.20;99.90;;;;;;4955604;29;20039;-81
2022/01/08 00:57:24;;;;;;;4.18;3.63;;;3.20;99.90;;;;;;4954517;29;20058;-81
2022/01/08 00:59:50;;;;;;;7.40;3.80;;;3.30;99.90;;;;;;4955005;29;20055;-81
2022/01/08 01:02:16;;;;;;;5.35;4.00;;;3.30;99.90;;;;;;4954647;29;20043;-82
2022/01/08 01:04:43;;;;;;;6.00;3.72;;;3.30;99.90;;;;;;4954920;29;20027;-82
2022/01/08 01:07:09;;;;;;;7.72;6.53;;;3.30;99.90;;;;;;4954580;29;20377;-81
2022/01/08 01:09:35;;;;;;;6.85;4.65;;;3.30;99.90;;;;;;4955152;29;20035;-82
2022/01/08 01:12:01;;;;;;;5.03;4.28;;;3.30;99.90;;;;;;4954834;29;20031;-81
2022/01/08 01:14:28;;;;;;;4.65;3.97;;;3.30;99.90;;;;;;4954778;29;20487;-81
2022/01/08 01:16:54;;;;;;;5.10;4.40;;;3.30;99.90;;;;;;4954736;29;20393;-81
2022/01/08 01:19:21;;;;;;;8.63;3.97;;;3.30;99.90;;;;;;4954156;28;20031;-81
2022/01/08 01:21:48;;;;;;;3.30;3.00;;;3.40;99.90;;;;;;4954865;29;20027;-81
2022/01/08 01:24:19;;;;;;;5.10;3.38;;;3.30;99.90;;;;;;4964231;28;20039;-80
2022/01/08 01:27:41;;;;;;;6.68;2.72;;;3.30;99.90;;;;;;4978789;29;20033;-81
2022/01/08 01:43:37;;;;;;;2.08;1.40;;;3.20;99.90;;;;;;4954134;29;20035;-81
2022/01/08 01:48:49;;;;;;;3.03;1.40;;;3.30;99.90;;;;;;4954396;29;20478;-82
2022/01/08 01:51:23;;;;;;;4.50;1.70;;;3.20;99.90;;;;;;4953663;29;20051;-81
2022/01/08 01:53:50;;;;;;;4.00;1.95;;;3.20;99.90;;;;;;4954601;29;20038;-81
2022/01/08 01:56:18;;;;;;;2.38;1.20;;;3.20;99.90;;;;;;4953853;29;20039;-81
2022/01/08 01:58:46;;;;;;;5.15;1.48;;;3.10;99.90;;;;;;4954353;29;20036;-81
2022/01/08 02:01:13;;;;;;;4.63;1.58;;;3.10;99.90;;;;;;4953689;29;20042;-81
2022/01/08 02:03:39;;;;;;;3.72;1.73;;;3.00;99.90;;;;;;4954193;29;20397;-81
2022/01/08 02:06:06;;;;;;;1.90;1.33;;;3.10;99.90;;;;;;4953784;29;20049;-77
2022/01/08 02:08:34;;;;;;;1.38;0.90;;;2.90;99.90;;;;;;4953992;29;20035;-80
2022/01/08 02:11:00;;;;;;;3.00;1.48;;;3.00;99.90;;;;;;4954244;29;20039;-80
2022/01/08 02:13:28;;;;;;;2.33;1.33;;;2.90;99.90;;;;;;4953701;29;20047;-79
2022/01/08 02:15:55;;;;;;;2.60;1.08;;;2.80;99.90;;;;;;4953857;29;20054;-81
2022/01/08 02:18:26;;;;;;;3.00;1.20;;;2.80;99.90;;;;;;4953573;29;20043;-81
2022/01/08 02:20:58;;;;;;;0.95;0.75;;;2.80;99.90;;;;;;4954360;29;20039;-83
2022/01/08 02:23:24;;;;;;;;;;;2.70;99.90;;;;;;4956059;29;20050;-79
2022/01/08 02:25:50;;;;;;;2.38;1.10;;;2.70;99.90;;;;;;4961299;29;20234;-83
2022/01/08 02:28:17;;;;;;;2.40;0.88;;;2.70;99.90;;;;;;4973054;29;20033;-83
2022/01/08 02:30:44;;;;;;;3.65;1.10;;;2.60;99.90;;;;;;4974264;29;20030;-83
2022/01/08 02:33:10;;;;;;;1.30;1.00;;;2.60;99.90;;;;;;4977152;28;20115;-81
2022/01/08 02:35:37;;;;;;;4.53;1.25;;;2.50;99.90;;;;;;4978442;28;20035;-86
2022/01/08 02:38:03;;;;;;;3.30;1.20;;;2.40;99.90;;;;;;4958003;29;20031;-84
2022/01/08 02:40:30;;;;;;;2.28;0.93;;;2.40;99.90;;;;;;4957559;29;20038;-87
2022/01/08 02:43:04;;;;;;;1.88;1.33;;;2.40;99.90;;;;;;4957731;29;20051;-86
2022/01/08 02:45:31;;;;;;;2.88;1.83;;;2.40;99.90;;;;;;4957383;29;20058;-85
2022/01/08 02:47:58;;;;;;;2.92;1.42;;;2.30;99.90;;;;;;4958044;29;20039;-83
2022/01/08 02:50:25;;;;;;;3.33;1.65;;;2.30;99.90;;;;;;4956871;29;20509;-85
2022/01/08 02:52:51;;;;;;;1.80;1.17;;;2.30;99.90;;;;;;4957819;29;20038;-84
2022/01/08 02:55:20;;;;;;;1.85;1.13;;;2.30;99.90;;;;;;4957192;29;20039;-84
2022/01/08 02:57:47;;;;;;;1.83;0.88;;;2.20;99.90;;;;;;4957360;29;20035;-82
2022/01/08 03:00:16;;;;;;;4.15;1.30;;;2.20;99.90;;;;;;4957007;29;20449;-85
2022/01/08 03:02:44;;;;;;;3.10;1.17;;;2.20;99.90;;;;;;4957200;29;20039;-83
2022/01/08 03:05:11;;;;;;;2.65;1.17;;;2.00;99.90;;;;;;4956582;29;20039;-83
2022/01/08 03:07:40;;;;;;;1.75;1.10;;;2.00;99.90;;;;;;4961284;29;20031;-83
2022/01/08 03:10:08;;;;;;;4.20;2.33;;;1.90;99.90;;;;;;4957413;29;20493;-81
2022/01/08 03:12:38;;;;;;;2.45;1.05;;;1.90;99.90;;;;;;4957280;29;20039;-82
2022/01/08 03:15:05;;;;;;;2.30;1.50;;;1.90;99.90;;;;;;4957493;29;20038;-83
2022/01/08 03:17:31;;;;;;;4.15;1.95;;;1.90;99.90;;;;;;4955902;29;20062;-82
2022/01/08 03:20:06;;;;;;;1.83;1.23;;;1.90;99.90;;;;;;4957294;29;20389;-83
2022/01/08 03:22:33;;;;;;;5.93;1.60;;;1.90;99.90;;;;;;4956438;29;20035;-83
2022/01/08 03:25:00;;;;;;;3.67;1.48;;;1.90;99.90;;;;;;4956394;29;20047;-84
2022/01/08 03:27:27;;;;;;;90.43;80.90;;;1.90;99.90;;;;;;4956421;29;20036;-84
2022/01/08 03:29:53;;;;;;;29.55;18.13;;;2.00;99.90;;;;;;4957077;29;20043;-84
2022/01/08 03:32:20;;;;;;;26.75;23.27;;;2.00;99.90;;;;;;4955380;29;20047;-83
2022/01/08 03:34:46;;;;;;;38.13;29.08;;;2.00;99.90;;;;;;4956633;29;20031;-84
2022/01/08 03:37:13;;;;;;;120.93;101.53;;;2.00;99.90;;;;;;4956266;29;20039;-83
2022/01/08 03:39:39;;;;;;;8.50;6.97;;;2.10;99.90;;;;;;4956610;29;20031;-85
2022/01/08 03:42:05;;;;;;;6.95;4.65;;;2.10;99.90;;;;;;4956894;29;20046;-84
2022/01/08 03:44:32;;;;;;;3.78;2.20;;;2.20;99.90;;;;;;4955883;28;20047;-84
2022/01/08 03:47:22;;;;;;;8.35;4.47;;;2.20;99.90;;;;;;4956352;29;20039;-85
2022/01/08 03:49:45;;;;;;;8.48;3.92;;;2.20;99.90;;;;;;4956571;29;20040;-84
2022/01/08 03:52:12;;;;;;;4.97;2.47;;;2.30;99.90;;;;;;4955859;29;20063;-79
2022/01/08 03:54:39;;;;;;;3.45;2.78;;;2.20;99.90;;;;;;4956916;29;20043;-84
2022/01/08 03:57:06;;;;;;;2.92;2.60;;;2.30;99.90;;;;;;4956541;29;20035;-86
2022/01/08 03:59:33;;;;;;;6.22;5.20;;;2.40;99.90;;;;;;4965116;29;20023;-81
2022/01/08 04:01:59;;;;;;;4.30;3.80;;;2.60;99.90;;;;;;4957250;29;20038;-82
2022/01/08 04:04:26;;;;;;;6.65;4.90;;;2.60;99.90;;;;;;4956556;29;20043;-80
2022/01/08 04:06:52;;;;;;;5.63;5.05;;;2.70;99.90;;;;;;4957373;29;20028;-83
2022/01/08 04:09:18;;;;;;;4.68;3.13;;;2.70;99.90;;;;;;4956400;29;20035;-83
2022/01/08 04:11:44;;;;;;;3.45;2.83;;;2.60;99.90;;;;;;4955941;29;20397;-81
2022/01/08 04:14:13;;;;;;;5.80;3.45;;;2.60;99.90;;;;;;4956221;29;20027;-83
2022/01/08 04:16:43;;;;;;;2.92;2.42;;;2.50;99.90;;;;;;4955836;29;20043;-84
2022/01/08 04:19:09;;;;;;;2.17;1.30;;;2.50;99.90;;;;;;4939664;29;20484;-84
2022/01/08 04:24:08;;;;;;;1.70;1.40;;;2.40;99.90;;;;;;4938833;29;20031;-85
2022/01/08 04:26:34;;;;;;;1.63;1.02;;;2.30;99.90;;;;;;4955551;29;20393;-82
2022/01/08 04:29:01;;;;;;;2.92;1.77;;;2.20;99.90;;;;;;4955972;29;20457;-83
2022/01/08 04:31:27;;;;;;;3.50;2.10;;;2.10;99.90;;;;;;4955298;29;20036;-83
2022/01/08 04:33:53;;;;;;;2.88;2.42;;;2.10;99.90;;;;;;4955794;29;20035;-85
2022/01/08 04:36:21;;;;;;;3.03;2.67;;;2.00;99.90;;;;;;4954824;29;20039;-82
2022/01/08 04:38:47;;;;;;;3.72;3.17;;;1.90;99.90;;;;;;4955860;29;20038;-83
2022/01/08 04:41:14;;;;;;;5.00;4.50;;;1.80;99.90;;;;;;4938368;29;20039;-82
2022/01/08 04:43:43;;;;;;;4.80;4.40;;;1.80;99.90;;;;;;4955684;29;20063;-83
2022/01/08 04:46:10;;;;;;;6.60;6.00;;;1.70;99.90;;;;;;4937896;29;20050;-83
2022/01/08 04:48:36;;;;;;;7.18;6.47;;;1.70;99.90;;;;;;4937554;29;20047;-78
2022/01/08 04:51:02;;;;;;;8.05;6.93;;;1.70;99.90;;;;;;4957092;29;20047;-80
2022/01/08 04:53:28;;;;;;;7.57;6.85;;;1.60;99.90;;;;;;4956378;29;20027;-80
2022/01/08 04:55:54;;;;;;;9.05;7.10;;;1.50;99.90;;;;;;4972988;28;20019;-77
2022/01/08 04:58:21;;;;;;;11.95;8.00;;;1.50;99.90;;;;;;4962368;29;20041;-76
2022/01/08 05:00:47;;;;;;;7.70;6.93;;;1.40;99.90;;;;;;4964168;29;20393;-77
2022/01/08 05:03:13;;;;;;;7.63;6.93;;;1.40;99.90;;;;;;4959417;29;20397;-81
2022/01/08 05:05:39;;;;;;;8.60;6.10;;;1.30;99.90;;;;;;4955945;29;20035;-83
2022/01/08 05:08:05;;;;;;;6.50;5.70;;;1.20;99.90;;;;;;4955254;29;20357;-82
2022/01/08 05:10:33;;;;;;;5.65;5.15;;;1.10;99.90;;;;;;4955347;29;20058;-82
2022/01/08 05:13:04;;;;;;;5.07;4.57;;;1.10;99.90;;;;;;4955400;29;20043;-86
2022/01/08 05:15:31;;;;;;;6.32;5.75;;;1.10;99.90;;;;;;4955147;29;20031;-84
2022/01/08 05:17:57;;;;;;;6.13;5.63;;;1.10;99.90;;;;;;4954766;29;20369;-82
2022/01/08 05:20:27;;;;;;;6.18;5.68;;;1.10;99.90;;;;;;4954345;29;20035;-82
2022/01/08 05:22:59;;;;;;;5.65;5.22;;;1.10;99.90;;;;;;4954741;29;20119;-83
2022/01/08 05:25:28;;;;;;;5.50;5.03;;;1.20;99.90;;;;;;4954680;29;20047;-85
2022/01/08 05:27:54;;;;;;;6.32;5.70;;;1.20;99.90;;;;;;4954897;29;20035;-85
2022/01/08 05:30:22;;;;;;;7.72;6.20;;;1.30;99.90;;;;;;4954666;29;20477;-85
2022/01/08 05:32:49;;;;;;;5.25;4.35;;;1.30;99.90;;;;;;4954468;29;20489;-82
2022/01/08 05:35:15;;;;;;;4.47;3.83;;;1.40;99.90;;;;;;4954896;29;20023;-86
2022/01/08 05:37:42;;;;;;;3.08;2.88;;;1.40;99.90;;;;;;4954622;29;20031;-81
2022/01/08 05:40:09;;;;;;;3.95;3.58;;;1.40;99.90;;;;;;4954788;29;20031;-80
2022/01/08 05:42:36;;;;;;;3.63;2.97;;;1.50;99.90;;;;;;4953962;29;20484;-82
2022/01/08 05:45:03;;;;;;;3.53;3.22;;;1.50;99.90;;;;;;4954412;29;20038;-82
2022/01/08 05:47:31;;;;;;;3.58;3.28;;;1.50;99.90;;;;;;4953676;29;20035;-82
2022/01/08 05:49:58;;;;;;;4.55;3.38;;;1.50;99.90;;;;;;4954203;29;20051;-83
2022/01/08 05:52:25;;;;;;;4.35;3.60;;;1.60;99.90;;;;;;4953678;29;20058;-84
2022/01/08 05:54:51;;;;;;;4.28;3.15;;;1.60;99.90;;;;;;4954228;29;20042;-84
2022/01/08 05:57:18;;;;;;;4.43;3.85;;;1.60;99.90;;;;;;4954284;29;20042;-83
2022/01/08 05:59:45;;;;;;;3.92;3.50;;;1.60;99.90;;;;;;4954482;29;20030;-83
2022/01/08 06:02:11;;;;;;;4.35;3.90;;;1.60;99.90;;;;;;4954200;29;20035;-83
2022/01/08 06:04:37;;;;;;;4.80;4.15;;;1.60;99.90;;;;;;4953474;29;20031;-83
2022/01/08 06:07:04;;;;;;;4.18;3.75;;;1.60;99.90;;;;;;4954059;28;20035;-83
2022/01/08 06:09:30;;;;;;;5.40;4.00;;;1.70;99.90;;;;;;4953549;29;20034;-82
2022/01/08 06:11:57;;;;;;;3.70;3.20;;;1.70;99.90;;;;;;4954333;29;20050;-84
2022/01/08 06:14:23;;;;;;;3.33;2.88;;;1.70;99.90;;;;;;4953750;29;20035;-84
2022/01/08 06:16:49;;;;;;;7.40;5.45;;;1.70;99.90;;;;;;4953874;29;20496;-83
2022/01/08 06:19:16;;;;;;;2.22;1.83;;;1.70;99.90;;;;;;4954165;29;20377;-83
2022/01/08 06:21:43;;;;;;;2.72;2.08;;;1.70;99.90;;;;;;4954514;29;20046;-84
2022/01/08 06:24:09;;;;;;;2.72;1.77;;;1.80;99.90;;;;;;4954194;29;20046;-83
2022/01/08 06:26:36;;;;;;;1.88;1.77;;;1.80;99.90;;;;;;4953602;29;20031;-82
2022/01/08 06:29:04;;;;;;;2.83;2.03;;;1.80;99.90;;;;;;4954235;29;20032;-83
2022/01/08 06:31:33;;;;;;;3.05;2.35;;;1.80;99.90;;;;;;4936823;29;20035;-81
2022/01/08 06:33:59;;;;;;;4.85;3.33;;;1.80;99.90;;;;;;4953834;29;20028;-83
2022/01/08 06:36:26;;;;;;;6.47;4.38;;;1.80;99.90;;;;;;4953243;29;20027;-84
2022/01/08 06:38:53;;;;;;;6.70;5.32;;;1.80;99.90;;;;;;4954131;29;20031;-83
2022/01/08 06:41:19;;;;;;;7.90;6.55;;;2.00;99.90;;;;;;4953689;29;20369;-83
2022/01/08 06:43:46;;;;;;;15.50;6.95;;;2.00;99.90;;;;;;4953499;29;20043;-84
2022/01/08 06:46:13;;;;;;;8.48;6.05;;;2.00;99.90;;;;;;4936625;29;20051;-83
2022/01/08 06:48:41;;;;;;;15.88;7.03;;;2.00;99.90;;;;;;4953048;29;20023;-82
2022/01/08 06:51:08;;;;;;;9.02;6.63;;;2.00;99.90;;;;;;4953192;29;20051;-82
2022/01/08 06:53:34;;;;;;;22.40;7.32;;;1.90;99.90;;;;;;4952817;29;20051;-84
2022/01/08 06:56:00;;;;;;;7.57;6.78;;;1.80;99.90;;;;;;4953853;29;20039;-84
2022/01/08 06:58:27;;;;;;;7.88;6.18;;;1.80;99.90;;;;;;4953408;29;20038;-84
2022/01/08 07:00:53;;;;;;;8.30;7.38;;;1.80;99.90;;;;;;4954057;29;20035;-84
2022/01/08 07:03:19;;;;;;;7.85;7.10;;;1.80;99.90;;;;;;4953749;29;20480;-85
2022/01/08 07:05:46;;;;;;;8.32;7.53;;;1.70;99.90;;;;;;4953051;29;20035;-84
2022/01/08 07:08:12;;;;;;;13.98;7.38;;;1.70;99.90;;;;;;4953609;29;20054;-85
2022/01/08 07:10:38;;;;;;;10.15;7.00;;;1.60;99.90;;;;;;4953059;29;20038;-85
2022/01/08 07:13:05;;;;;;;8.18;7.00;;;1.50;99.90;;;;;;4953542;29;20050;-85
2022/01/08 07:15:31;;;;;;;7.78;6.60;;;1.40;99.90;;;;;;4952392;29;20031;-85
2022/01/08 07:17:57;;;;;;;9.70;6.72;;;1.40;99.90;;;;;;4954007;28;20055;-87
2022/01/08 07:20:24;;;;;;;12.77;8.15;;;1.30;99.90;;;;;;4957199;29;20031;-79
2022/01/08 07:22:50;;;;;;;8.43;7.28;;;1.30;99.90;;;;;;4957282;29;20043;-87
2022/01/08 07:25:17;;;;;;;11.32;7.18;;;1.20;99.90;;;;;;4957199;29;20047;-87
2022/01/08 07:27:44;;;;;;;13.13;8.85;;;1.20;99.90;;;;;;4955321;29;20050;-85
2022/01/08 07:30:11;;;;;;;12.95;8.75;;;1.10;99.90;;;;;;4942651;29;20042;-85
2022/01/08 07:32:44;;;;;;;8.93;7.78;;;1.10;99.90;;;;;;4962613;29;20465;-79
2022/01/08 07:35:14;;;;;;;12.98;10.80;;;1.10;99.90;;;;;;4964816;29;20039;-87
2022/01/08 07:37:42;;;;;;;26.42;22.20;;;1.20;99.90;;;;;;4961884;29;20034;-86
2022/01/08 07:40:09;;;;;;;21.83;14.98;;;1.30;99.90;;;;;;4975158;28;20038;-87
2022/01/08 07:42:36;;;;;;;15.00;13.05;;;1.30;99.90;;;;;;4975889;28;20416;-87
2022/01/08 07:45:03;;;;;;;16.88;15.13;;;1.40;99.90;;;;;;4975662;28;20042;-87
2022/01/08 07:47:29;;;;;;;15.00;13.55;;;1.40;99.90;;;;;;4975767;28;20042;-86
2022/01/08 07:49:56;;;;;;;19.33;17.38;;;1.50;99.90;;;;;;4976174;28;20392;-87
2022/01/08 07:52:22;;;;;;;24.90;10.80;;;1.50;99.90;;;;;;4976240;28;20055;-86
2022/01/08 07:54:48;;;;;;;18.65;13.50;;;1.60;99.90;;;;;;4975116;28;20047;-86
2022/01/08 07:57:14;;;;;;;13.23;11.27;;;1.70;99.90;;;;;;4976074;28;20373;-87
2022/01/08 07:59:42;;;;;;;9.50;8.38;;;1.80;99.90;;;;;;4975286;28;20034;-82
2022/01/08 08:02:11;;;;;;;11.52;7.95;;;1.90;99.90;;;;;;4975628;28;20039;-86
2022/01/08 08:04:38;;;;;;;6.53;4.90;;;2.10;99.90;;;;;;4971042;28;20035;-85
2022/01/08 08:07:04;;;;;;;5.88;4.95;;;2.00;99.90;;;;;;4968700;28;20032;-86
2022/01/08 08:09:31;;;;;;;6.50;4.55;;;2.10;99.90;;;;;;4938316;29;20043;-91
2022/01/08 08:11:58;;;;;;;4.80;3.30;;;2.10;99.90;;;;;;4957200;29;20400;-88
2022/01/08 08:14:24;;;;;;;9.20;3.40;;;2.00;99.90;;;;;;4958080;29;20035;-89
2022/01/08 08:16:50;;;;;;;4.18;2.58;;;2.00;99.90;;;;;;4958119;29;20039;-87
2022/01/08 08:19:16;;;;;;;12.85;2.75;;;1.90;99.90;;;;;;4966513;29;20046;-87
2022/01/08 08:21:43;;;;;;;4.80;2.35;;;2.10;99.90;;;;;;4963858;29;20061;-84
2022/01/08 08:24:09;;;;;;;3.67;2.35;;;2.30;99.90;;;;;;4961832;29;20051;-85
2022/01/08 08:26:38;;;;;;;5.72;2.25;;;2.30;99.90;;;;;;4941706;29;20028;-83
2022/01/08 08:29:04;;;;;;;9.23;2.80;;;2.50;99.90;;;;;;4936233;29;20040;-84
2022/01/08 08:31:31;;;;;;;6.55;2.45;;;2.50;99.90;;;;;;4937624;29;20039;-84
2022/01/08 08:33:57;;;;;;;4.03;2.78;;;2.50;99.90;;;;;;4937056;29;20461;-84
2022/01/08 08:36:23;;;;;;;7.32;4.35;;;2.60;99.90;;;;;;4956520;29;20046;-82
2022/01/08 08:38:49;;;;;;;8.98;5.40;;;2.60;99.90;;;;;;4956297;29;20042;-82
2022/01/08 08:41:16;;;;;;;7.80;4.72;;;2.60;99.90;;;;;;4946650;29;20027;-84
2022/01/08 08:43:42;;;;;;;7.55;3.33;;;2.60;99.90;;;;;;4936932;29;20052;-85
2022/01/08 08:46:08;;;;;;;4.80;2.95;;;2.70;99.90;;;;;;4937668;29;20051;-89
2022/01/08 08:48:34;;;;;;;3.55;1.73;;;2.70;99.90;;;;;;4938700;29;20035;-88
2022/01/08 08:51:01;;;;;;;3.75;1.88;;;2.80;99.90;;;;;;4936453;29;20052;-86
2022/01/08 08:53:27;;;;;;;2.67;1.38;;;2.90;99.90;;;;;;4937128;29;20059;-89
2022/01/08 08:55:53;;;;;;;5.65;2.15;;;2.90;99.90;;;;;;4936727;29;20374;-85
2022/01/08 08:58:19;;;;;;;6.50;2.30;;;3.00;99.90;;;;;;4936723;29;20044;-87
2022/01/08 09:00:46;;;;;;;6.03;2.20;;;3.00;99.90;;;;;;4920415;29;20404;-88
2022/01/08 09:03:13;;;;;;;6.97;2.50;;;3.00;99.90;;;;;;4937366;29;20052;-87
2022/01/08 09:05:39;;;;;;;4.85;2.45;;;3.00;99.90;;;;;;4958061;29;20031;-87
2022/01/08 09:08:05;;;;;;;4.82;2.85;;;3.10;99.90;;;;;;4970433;29;20035;-89
2022/01/08 09:10:33;;;;;;;5.15;3.13;;;3.10;99.90;;;;;;4959094;29;20035;-87
2022/01/08 09:12:59;;;;;;;5.80;4.07;;;3.10;99.90;;;;;;4956241;29;20480;-88
2022/01/08 09:15:26;;;;;;;4.82;3.45;;;3.00;99.90;;;;;;4956176;29;20567;-88
2022/01/08 09:17:58;;;;;;;9.77;4.03;;;3.00;99.90;;;;;;4955675;29;20043;-87
2022/01/08 09:20:28;;;;;;;5.55;3.85;;;3.00;99.90;;;;;;4955643;29;20058;-88
2022/01/08 09:22:54;;;;;;;5.32;3.75;;;3.00;99.90;;;;;;4955509;29;20489;-82
2022/01/08 09:25:21;;;;;;;3.75;2.28;;;3.00;99.90;;;;;;4957554;29;20031;-87
2022/01/08 09:27:47;;;;;;;6.88;2.65;;;3.00;99.90;;;;;;4955649;29;20490;-85
2022/01/08 09:30:13;;;;;;;8.27;3.25;;;3.00;99.90;;;;;;4954861;29;20035;-85
2022/01/08 09:32:43;;;;;;;2.90;2.38;;;3.10;99.90;;;;;;4954405;29;20039;-83
2022/01/08 09:35:15;;;;;;;3.67;3.05;;;3.10;99.90;;;;;;4954693;29;20050;-84
2022/01/08 09:37:41;;;;;;;7.43;5.53;;;3.10;99.90;;;;;;4954750;29;20031;-83
2022/01/08 09:40:13;;;;;;;8.95;6.75;;;3.10;99.90;;;;;;4936901;29;20389;-85
2022/01/08 09:42:41;;;;;;;7.53;4.28;;;3.20;99.90;;;;;;4935004;29;20363;-82
2022/01/08 09:45:08;;;;;;;7.20;4.57;;;3.30;99.90;;;;;;4936125;29;20047;-84
2022/01/08 09:47:35;;;;;;;7.13;3.85;;;3.30;99.90;;;;;;4935456;29;20028;-85
2022/01/08 09:50:03;;;;;;;9.32;5.05;;;3.30;99.90;;;;;;4936018;29;20035;-84
2022/01/08 09:52:30;;;;;;;3.83;2.67;;;3.40;99.90;;;;;;4946312;29;20043;-85
2022/01/08 09:54:56;;;;;;;4.85;2.95;;;3.30;99.90;;;;;;4954465;29;20042;-84
2022/01/08 09:57:23;;;;;;;5.45;2.88;;;3.40;99.90;;;;;;4954857;29;20066;-82
2022/01/08 09:59:49;;;;;;;5.75;2.50;;;3.40;99.90;;;;;;4953679;29;20034;-81
2022/01/08 10:02:21;;;;;;;4.03;1.98;;;3.50;99.90;;;;;;4954818;29;20035;-82
2022/01/08 10:04:48;;;;;;;7.60;3.10;;;3.50;99.90;;;;;;4953905;29;20373;-82
2022/01/08 10:07:22;;;;;;;5.65;3.15;;;3.60;99.90;;;;;;4954698;29;20027;-82
2022/01/08 10:09:57;;;;;;;8.02;2.80;;;3.70;99.90;;;;;;4953731;29;20036;-85
2022/01/08 10:12:45;;;;;;;11.93;3.33;;;3.70;99.90;;;;;;4954681;29;20046;-81
2022/01/08 10:17:59;;;;;;;5.50;2.38;;;3.70;99.90;;;;;;4953213;29;20485;-81
2022/01/08 10:20:32;;;;;;;3.67;2.78;;;3.70;99.90;;;;;;4954656;29;20035;-82
2022/01/08 10:23:19;;;;;;;5.60;2.83;;;3.70;99.90;;;;;;4954012;29;20473;-84
2022/01/08 10:26:08;;;;;;;15.00;5.55;;;3.70;99.90;;;;;;4954984;29;20043;-83
2022/01/08 10:28:53;;;;;;;6.72;4.00;;;3.70;99.90;;;;;;4954465;29;20381;-78
2022/01/08 10:31:25;;;;;;;5.53;4.10;;;3.80;99.90;;;;;;4954499;29;20473;-83
2022/01/08 10:34:02;;;;;;;19.60;4.20;;;4.00;99.90;;;;;;4953860;29;20040;-84
2022/01/08 10:36:30;;;;;;;4.78;2.95;;;4.00;99.80;;;;;;4954059;29;20043;-82
2022/01/08 10:38:59;;;;;;;14.15;3.60;;;4.10;98.50;;;;;;4953429;29;20046;-82
2022/01/08 10:41:27;;;;;;;4.45;3.63;;;4.10;98.60;;;;;;4953928;29;20043;-83
2022/01/08 10:44:10;;;;;;;4.15;2.13;;;4.20;97.60;;;;;;4936442;29;20058;-83
2022/01/08 10:46:38;;;;;;;4.60;2.72;;;4.40;96.80;;;;;;4953619;29;20405;-78
2022/01/08 10:49:05;;;;;;;4.65;2.85;;;4.60;96.40;;;;;;4945611;29;20032;-85
2022/01/08 10:51:37;;;;;;;4.05;2.53;;;4.70;95.80;;;;;;4943152;29;20393;-83
2022/01/08 10:54:06;;;;;;;8.25;2.45;;;4.90;95.20;;;;;;4939920;29;20043;-82
2022/01/08 10:56:49;;;;;;;2.88;2.25;;;5.00;94.50;;;;;;4938654;29;20043;-83
2022/01/08 10:59:19;;;;;;;8.45;3.08;;;5.00;93.80;;;;;;4938677;29;20474;-83
2022/01/08 11:01:56;;;;;;;21.52;16.00;;;5.10;94.10;;;;;;4937742;29;20047;-81
2022/01/08 11:04:45;;;;;;;4.50;2.40;;;5.10;92.80;;;;;;4937875;29;20054;-82
2022/01/08 11:07:17;;;;;;;4.47;2.33;;;5.00;91.90;;;;;;4938603;29;20469;-82
2022/01/08 11:09:45;;;;;;;3.63;2.60;;;4.90;92.00;;;;;;4938950;29;20032;-81
2022/01/08 11:12:27;;;;;;;2.75;1.85;;;5.00;92.30;;;;;;4940851;29;20054;-81
2022/01/08 11:17:29;;;;;;;6.22;2.28;;;5.30;91.90;;;;;;4938649;29;20036;-80
2022/01/08 11:20:12;;;;;;;3.47;2.22;;;5.20;91.20;;;;;;4920632;29;20035;-81
2022/01/08 11:22:44;;;;;;;10.48;1.42;;;5.30;90.80;;;;;;4932258;29;20485;-79
2022/01/08 11:25:23;;;;;;;5.25;2.70;;;5.10;90.50;;;;;;4921078;29;20051;-81
2022/01/08 11:27:56;;;;;;;6.22;2.47;;;5.10;90.80;;;;;;4938408;29;20039;-80
2022/01/08 11:30:26;;;;;;;5.00;2.78;;;5.10;90.60;;;;;;4939144;29;20036;-80
2022/01/08 11:33:00;;;;;;;7.63;1.88;;;5.00;90.00;;;;;;4937671;29;20067;-79
2022/01/08 11:35:27;;;;;;;3.63;1.52;;;5.10;90.50;;;;;;4939779;29;20031;-80
2022/01/08 11:37:56;;;;;;;2.10;1.50;;;5.00;90.50;;;;;;4941212;29;20032;-79
2022/01/08 11:40:25;;;;;;;5.18;2.00;;;5.10;90.10;;;;;;4939283;29;20043;-79
2022/01/08 11:42:52;;;;;;;3.65;1.67;;;5.20;88.90;;;;;;4937829;29;20043;-79
2022/01/08 11:45:27;;;;;;;3.45;1.90;;;5.40;87.60;;;;;;4938524;29;20040;-81
2022/01/08 11:47:56;;;;;;;4.68;1.65;;;5.40;88.50;;;;;;4937905;29;20059;-79
2022/01/08 11:50:26;;;;;;;4.93;2.22;;;5.30;88.50;;;;;;4937571;29;20032;-77
2022/01/08 11:53:14;;;;;;;2.00;1.60;;;5.10;88.10;;;;;;4937417;29;20046;-78
2022/01/08 11:55:42;;;;;;;4.32;1.98;;;5.00;88.00;;;;;;4936870;29;20042;-78
2022/01/08 11:58:23;;;;;;;6.18;2.50;;;4.90;88.40;;;;;;4937277;29;20035;-79
2022/01/08 12:01:03;;;;;;;7.00;1.83;;;4.70;89.00;;;;;;4938168;29;20036;-81
2022/01/08 12:03:35;;;;;;;4.80;1.77;;;4.80;89.70;;;;;;4937310;28;20098;-76
2022/01/08 12:06:23;;;;;;;3.00;1.92;;;5.00;89.90;;;;;;4936661;29;20043;-75
2022/01/08 12:09:07;;;;;;;3.55;1.45;;;5.10;88.70;;;;;;4936230;29;20035;-74
2022/01/08 12:11:57;;;;;;;14.50;2.13;;;5.00;87.90;;;;;;4937786;29;20035;-74
2022/01/08 12:14:30;;;;;;;2.88;1.75;;;5.00;87.90;;;;;;4937405;29;20478;-78
2022/01/08 12:17:12;;;;;;;2.92;1.60;;;5.00;87.50;;;;;;4919328;29;20055;-76
2022/01/08 12:19:44;;;;;;;3.35;1.75;;;5.20;87.00;;;;;;4937611;29;20397;-76
2022/01/08 12:22:16;;;;;;;4.03;1.40;;;5.30;87.80;;;;;;4937500;29;20036;-75
2022/01/08 12:24:51;;;;;;;3.10;1.50;;;5.30;86.30;;;;;;4936975;29;20036;-80
2022/01/08 12:27:39;;;;;;;4.93;1.88;;;5.10;86.40;;;;;;4936210;29;20047;-75
2022/01/08 12:30:17;;;;;;;3.38;1.50;;;5.00;86.20;;;;;;4940822;29;20028;-74
2022/01/08 12:32:48;;;;;;;2.38;1.42;;;5.00;87.60;;;;;;4938178;29;20366;-78
2022/01/08 12:35:37;;;;;;;6.63;2.20;;;5.00;87.70;;;;;;4920418;29;20048;-76
2022/01/08 12:38:07;;;;;;;2.63;1.60;;;5.10;88.40;;;;;;4920011;29;20050;-76
2022/01/08 12:40:41;;;;;;;2.78;1.65;;;5.20;86.90;;;;;;4941342;29;20113;-76
2022/01/08 12:43:31;;;;;;;9.93;1.38;;;5.30;87.10;;;;;;4923790;29;20036;-75
2022/01/08 12:46:14;;;;;;;2.67;1.75;;;5.40;85.60;;;;;;4936606;29;20046;-77
2022/01/08 12:49:03;;;;;;;2.40;1.20;;;5.50;86.50;;;;;;4939250;29;20036;-76
2022/01/08 12:51:42;;;;;;;3.03;1.10;;;5.40;86.60;;;;;;4937157;29;20059;-74
2022/01/08 12:54:08;;;;;;;4.20;1.52;;;5.20;87.50;;;;;;4938327;29;20048;-78
2022/01/08 12:56:35;;;;;;;3.28;1.58;;;5.30;87.90;;;;;;4922577;29;20040;-77
2022/01/08 12:59:03;;;;;;;5.63;1.83;;;5.20;86.80;;;;;;4936773;29;20036;-81
2022/01/08 13:01:30;;;;;;;7.60;2.20;;;5.00;88.40;;;;;;4920646;29;20465;-74
2022/01/08 13:03:58;;;;;;;2.70;1.73;;;4.90;89.40;;;;;;4936563;29;20051;-76
2022/01/08 13:06:27;;;;;;;4.22;2.67;;;4.80;90.00;;;;;;4937018;29;20035;-78
2022/01/08 13:08:55;;;;;;;9.23;3.47;;;4.80;90.40;;;;;;4935324;29;20054;-73
2022/01/08 13:11:25;;;;;;;3.70;2.28;;;4.90;91.00;;;;;;4918585;29;20442;-74
2022/01/08 13:14:02;;;;;;;8.18;2.60;;;4.90;91.10;;;;;;4935104;29;20050;-75
2022/01/08 13:16:41;;;;;;;5.13;2.70;;;4.90;91.40;;;;;;4935398;29;20044;-72
2022/01/08 13:19:19;;;;;;;4.18;2.30;;;4.80;91.60;;;;;;4935211;29;20044;-73
2022/01/08 13:21:51;;;;;;;4.78;3.17;;;4.70;92.10;;;;;;4935733;29;20393;-75
2022/01/08 13:24:34;;;;;;;10.10;2.75;;;4.70;92.40;;;;;;4935358;29;20039;-74
2022/01/08 13:27:05;;;;;;;8.25;1.98;;;4.70;92.40;;;;;;4935147;29;20039;-73
2022/01/08 13:29:37;;;;;;;6.78;2.22;;;4.70;91.90;;;;;;4935444;29;20032;-72